createdAt,value
2023-05-10T05:03:26.974Z,95384.00
2023-05-10T05:04:27.758Z,95378.00
2023-05-10T05:05:27.823Z,95382.00
2023-05-10T05:06:27.722Z,95386.00
2023-05-10T05:07:27.680Z,95384.00
2023-05-10T05:08:26.717Z,95382.00
2023-05-10T05:09:27.664Z,95386.00
2023-05-10T05:10:26.674Z,95382.00
2023-05-10T05:11:27.823Z,95388.00
2023-05-10T05:12:27.699Z,95388.00
2023-05-10T05:13:28.000Z,95386.00
2023-05-10T05:14:28.135Z,95388.00
2023-05-10T05:15:26.735Z,95389.00
2023-05-10T05:16:26.816Z,95389.00
2023-05-10T05:17:26.741Z,95389.00
2023-05-10T05:18:27.687Z,95393.00
2023-05-10T05:19:27.725Z,95389.00
2023-05-10T05:20:27.711Z,95389.00
2023-05-10T05:21:27.609Z,95389.00
2023-05-10T05:22:27.577Z,95389.00
2023-05-10T05:23:26.818Z,95389.00
2023-05-10T05:24:27.719Z,95389.00
2023-05-10T05:25:27.695Z,95389.00
2023-05-10T05:26:26.749Z,95391.00
2023-05-10T05:27:26.751Z,95395.00
2023-05-10T05:28:26.811Z,95395.00
2023-05-10T05:29:27.716Z,95391.00
2023-05-10T05:30:27.704Z,95403.00
2023-05-10T05:31:26.730Z,95391.00
2023-05-10T05:32:26.772Z,95395.00
2023-05-10T05:33:27.724Z,95393.00
2023-05-10T05:34:27.720Z,95393.00
2023-05-10T05:35:26.744Z,95393.00
2023-05-10T05:36:26.720Z,95391.00
2023-05-10T05:37:27.723Z,95395.00
2023-05-10T05:38:27.743Z,95393.00
2023-05-10T05:39:27.769Z,95403.00
2023-05-10T05:40:28.019Z,95393.00
2023-05-10T05:41:28.192Z,95405.00
2023-05-10T05:42:28.108Z,95405.00
2023-05-10T05:43:27.083Z,95405.00
2023-05-10T05:44:27.138Z,95405.00
2023-05-10T05:45:28.152Z,95407.00
2023-05-10T05:46:28.047Z,95407.00
2023-05-10T05:47:27.273Z,95409.00
2023-05-10T05:48:28.314Z,95411.00
2023-05-10T05:49:27.052Z,95413.00
2023-05-10T05:50:28.161Z,95413.00
2023-05-10T05:51:28.381Z,95415.00
2023-05-10T05:52:27.986Z,95413.00
2023-05-10T05:53:27.014Z,95413.00
2023-05-10T05:54:28.042Z,95413.00
2023-05-10T05:55:27.996Z,95413.00
2023-05-10T05:56:29.669Z,95411.00
2023-05-10T05:57:27.071Z,95409.00
2023-05-10T05:58:27.033Z,95409.00
2023-05-10T06:00:57.222Z,95411.00
2023-05-10T06:04:01.114Z,95413.00
2023-05-10T06:06:51.577Z,95415.00
2023-05-10T06:09:05.120Z,95413.00
2023-05-10T06:11:23.755Z,95415.00
2023-05-10T06:12:24.466Z,95417.00
2023-05-10T06:13:24.571Z,95419.00
2023-05-10T06:14:23.168Z,95419.00
2023-05-10T06:15:24.152Z,95419.00
2023-05-10T06:16:24.437Z,95421.00
2023-05-10T06:17:24.144Z,95421.00
2023-05-10T06:18:24.134Z,95419.00
2023-05-10T06:19:23.150Z,95421.00
2023-05-10T06:20:23.152Z,95423.00
2023-05-10T06:21:24.154Z,95423.00
2023-05-10T06:22:24.129Z,95431.00
2023-05-10T06:23:24.179Z,95431.00
2023-05-10T06:24:23.115Z,95431.00
2023-05-10T06:25:24.217Z,95431.00
2023-05-10T06:26:24.097Z,95433.00
2023-05-10T06:27:24.091Z,95429.00
2023-05-10T06:28:23.082Z,95431.00
2023-05-10T06:29:24.091Z,95431.00
2023-05-10T06:30:23.053Z,95431.00
2023-05-10T06:31:24.192Z,95433.00
2023-05-10T06:32:24.091Z,95435.00
2023-05-10T06:33:24.062Z,95433.00
2023-05-10T06:34:24.104Z,95433.00
2023-05-10T06:35:34.116Z,95437.00
2023-05-10T06:37:42.510Z,95442.00
2023-05-10T06:40:39.257Z,95442.00
2023-05-10T06:42:58.215Z,95442.00
2023-05-10T06:43:59.026Z,95441.00
2023-05-10T06:46:24.185Z,95439.00
2023-05-10T06:49:05.437Z,95441.00
2023-05-10T06:51:12.284Z,95442.00
2023-05-10T06:52:17.981Z,95442.00
2023-05-10T06:54:31.712Z,95442.00
2023-05-10T06:55:32.269Z,95444.00
2023-05-10T07:01:42.798Z,95442.00
2023-05-10T07:04:50.304Z,95442.00
2023-05-10T07:11:02.872Z,95446.00
2023-05-10T07:13:24.589Z,95446.00
2023-05-10T07:14:24.932Z,95448.00
2023-05-10T07:16:43.390Z,95450.00
2023-05-10T07:19:09.115Z,95448.00
2023-05-10T07:20:02.797Z,95448.00
2023-05-10T07:21:02.614Z,95452.00
2023-05-10T07:22:02.520Z,95452.00
2023-05-10T07:23:02.516Z,95450.00
2023-05-10T07:24:02.508Z,95450.00
2023-05-10T07:25:03.532Z,95452.00
2023-05-10T07:26:03.546Z,95450.00
2023-05-10T07:27:03.494Z,95448.00
2023-05-10T07:28:03.472Z,95454.00
2023-05-10T07:29:03.467Z,95452.00
2023-05-10T07:30:03.503Z,95452.00
2023-05-10T07:31:03.543Z,95454.00
2023-05-10T07:32:02.501Z,95454.00
2023-05-10T07:33:03.507Z,95454.00
2023-05-10T07:34:03.448Z,95456.00
2023-05-10T07:35:03.436Z,95452.00
2023-05-10T07:36:03.416Z,95452.00
2023-05-10T07:37:03.443Z,95450.00
2023-05-10T07:38:03.417Z,95452.00
2023-05-10T07:39:03.418Z,95452.00
2023-05-10T07:40:03.403Z,95450.00
2023-05-10T07:41:03.403Z,95452.00
2023-05-10T07:42:03.372Z,95446.00
2023-05-10T07:43:02.440Z,95452.00
2023-05-10T07:44:03.373Z,95450.00
2023-05-10T07:45:02.360Z,95450.00
2023-05-10T07:46:03.417Z,95454.00
2023-05-10T07:47:03.362Z,95454.00
2023-05-10T07:48:03.560Z,95450.00
2023-05-10T07:49:03.373Z,95454.00
2023-05-10T07:50:03.329Z,95452.00
2023-05-10T07:51:02.340Z,95456.00
2023-05-10T07:52:02.303Z,95454.00
2023-05-10T07:53:03.327Z,95458.00
2023-05-10T07:54:03.545Z,95464.00
2023-05-10T07:55:02.332Z,95466.00
2023-05-10T07:56:02.394Z,95466.00
2023-05-10T07:57:02.322Z,95468.00
2023-05-10T07:58:02.316Z,95474.00
2023-05-10T07:59:02.327Z,95474.00
2023-05-10T08:00:02.258Z,95474.00
2023-05-10T08:01:03.276Z,95474.00
2023-05-10T08:02:03.264Z,95474.00
2023-05-10T08:03:03.433Z,95472.00
2023-05-10T08:04:02.369Z,95482.00
2023-05-10T08:05:02.350Z,95478.00
2023-05-10T08:06:03.361Z,95476.00
2023-05-10T08:07:02.413Z,95476.00
2023-05-10T08:08:03.489Z,95476.00
2023-05-10T08:09:02.493Z,95474.00
2023-05-10T08:10:03.530Z,95478.00
2023-05-10T08:11:03.513Z,95478.00
2023-05-10T08:12:03.549Z,95486.00
2023-05-10T08:13:03.560Z,95493.00
2023-05-10T08:14:03.646Z,95491.00
2023-05-10T08:15:03.738Z,95495.00
2023-05-10T08:16:03.695Z,95497.00
2023-05-10T08:17:03.699Z,95497.00
2023-05-10T08:18:02.818Z,95493.00
2023-05-10T08:19:02.943Z,95493.00
2023-05-10T08:20:03.805Z,95503.00
2023-05-10T08:21:03.842Z,95501.00
2023-05-10T08:22:03.842Z,95503.00
2023-05-10T08:23:02.807Z,95499.00
2023-05-10T08:24:03.834Z,95505.00
2023-05-10T08:25:02.934Z,95501.00
2023-05-10T08:26:03.961Z,95503.00
2023-05-10T08:27:03.952Z,95503.00
2023-05-10T08:28:04.030Z,95507.00
2023-05-10T08:29:05.224Z,95505.00
2023-05-10T08:30:04.065Z,95503.00
2023-05-10T08:31:04.901Z,95503.00
2023-05-10T09:07:31.616Z,95529.00
2023-05-10T09:13:31.625Z,95536.00
2023-05-10T09:15:47.624Z,95538.00
2023-05-10T09:18:06.500Z,95538.00
2023-05-10T09:19:07.016Z,95536.00
2023-05-10T09:21:30.307Z,95533.00
2023-05-10T09:23:58.640Z,95533.00
2023-05-10T09:24:50.463Z,95533.00
2023-05-10T09:27:04.060Z,95535.00
2023-05-10T09:28:05.498Z,95531.00
2023-05-10T09:30:45.150Z,95535.00
2023-05-10T09:31:44.819Z,95531.00
2023-05-10T09:34:41.565Z,95527.00
2023-05-10T09:35:35.465Z,95527.00
2023-05-10T09:37:54.362Z,95531.00
2023-05-10T09:38:53.651Z,95529.00
2023-05-10T09:39:54.596Z,95529.00
2023-05-10T09:40:54.581Z,95529.00
2023-05-10T09:41:54.561Z,95527.00
2023-05-10T09:42:54.643Z,95531.00
2023-05-10T09:43:54.631Z,95531.00
2023-05-10T09:46:25.780Z,95535.00
2023-05-10T09:51:14.509Z,95527.00
2023-05-10T09:53:32.495Z,95527.00
2023-05-10T09:54:32.980Z,95521.00
2023-05-10T09:55:33.787Z,95523.00
2023-05-10T09:56:47.867Z,95521.00
2023-05-10T09:57:56.289Z,95521.00
2023-05-10T09:58:57.246Z,95523.00
2023-05-10T09:59:56.184Z,95521.00
2023-05-10T10:00:57.257Z,95523.00
2023-05-10T10:01:58.823Z,95523.00
2023-05-10T10:05:34.615Z,95519.00
2023-05-10T10:06:46.563Z,95515.00
2023-05-10T10:07:49.788Z,95515.00
2023-05-10T10:08:35.561Z,95519.00
2023-05-10T10:09:35.500Z,95517.00
2023-05-10T10:10:35.504Z,95509.00
2023-05-10T10:11:34.475Z,95513.00
2023-05-10T10:12:35.473Z,95513.00
2023-05-10T10:13:34.532Z,95515.00
2023-05-10T10:14:34.422Z,95513.00
2023-05-10T10:15:35.594Z,95513.00
2023-05-10T10:16:35.573Z,95513.00
2023-05-10T10:17:35.506Z,95515.00
2023-05-10T10:18:34.398Z,95515.00
2023-05-10T10:19:34.425Z,95521.00
2023-05-10T10:20:35.460Z,95521.00
2023-05-10T10:21:35.440Z,95519.00
2023-05-10T10:22:35.377Z,95517.00
2023-05-10T10:23:35.576Z,95519.00
2023-05-10T10:24:35.356Z,95515.00
2023-05-10T10:25:34.345Z,95525.00
2023-05-10T10:26:35.357Z,95519.00
2023-05-10T10:27:34.373Z,95521.00
2023-05-10T10:28:34.325Z,95519.00
2023-05-10T10:29:34.328Z,95525.00
2023-05-10T10:30:34.311Z,95525.00
2023-05-10T10:31:34.355Z,95525.00
2023-05-10T10:32:35.392Z,95523.00
2023-05-10T10:33:34.375Z,95523.00
2023-05-10T10:34:34.277Z,95525.00
2023-05-10T10:35:35.288Z,95525.00
2023-05-10T10:36:35.328Z,95525.00
2023-05-10T10:37:35.352Z,95525.00
2023-05-10T10:38:35.262Z,95519.00
2023-05-10T10:39:35.265Z,95519.00
2023-05-10T10:40:35.017Z,95523.00
2023-05-10T10:41:34.274Z,95519.00
2023-05-10T10:42:35.250Z,95519.00
2023-05-10T10:43:35.258Z,95517.00
2023-05-10T10:44:35.275Z,95515.00
2023-05-10T10:45:35.267Z,95515.00
2023-05-10T10:46:34.292Z,95519.00
2023-05-10T10:47:35.327Z,95521.00
2023-05-10T10:48:35.378Z,95521.00
2023-05-10T10:49:34.403Z,95521.00
2023-05-10T10:50:35.541Z,95523.00
2023-05-10T10:51:35.504Z,95523.00
2023-05-10T10:52:35.530Z,95521.00
2023-05-10T10:53:35.566Z,95521.00
2023-05-10T10:54:34.586Z,95519.00
2023-05-10T10:55:34.628Z,95517.00
2023-05-10T10:56:36.936Z,95519.00
2023-05-10T10:57:35.661Z,95513.00
2023-05-10T10:58:35.723Z,95513.00
2023-05-10T10:59:34.859Z,95517.00
2023-05-10T11:00:35.831Z,95517.00
2023-05-10T11:01:35.957Z,95513.00
2023-05-10T11:02:34.931Z,95513.00
2023-05-10T11:03:34.979Z,95513.00
2023-05-10T11:04:35.972Z,95509.00
2023-05-10T11:05:35.994Z,95511.00
2023-05-10T11:06:35.022Z,95515.00
2023-05-10T11:07:35.050Z,95513.00
2023-05-10T11:08:38.230Z,95515.00
2023-05-10T11:09:35.037Z,95517.00
2023-05-10T11:10:36.042Z,95513.00
2023-05-10T11:11:36.018Z,95519.00
2023-05-10T11:12:35.022Z,95521.00
2023-05-10T11:13:36.030Z,95521.00
2023-05-10T11:14:35.007Z,95523.00
2023-05-10T11:15:36.005Z,95523.00
2023-05-10T11:16:36.005Z,95523.00
2023-05-10T11:17:36.065Z,95523.00
2023-05-10T11:18:36.010Z,95521.00
2023-05-10T11:19:36.001Z,95521.00
2023-05-10T11:20:35.967Z,95525.00
2023-05-10T11:21:35.950Z,95523.00
2023-05-10T11:22:35.936Z,95523.00
2023-05-10T11:23:35.965Z,95523.00
2023-05-10T11:24:34.934Z,95525.00
2023-05-10T11:25:34.924Z,95527.00
2023-05-10T11:26:35.903Z,95525.00
2023-05-10T11:27:34.897Z,95529.00
2023-05-10T11:28:34.927Z,95529.00
2023-05-10T11:29:34.893Z,95529.00
2023-05-10T11:30:34.943Z,95525.00
2023-05-10T11:31:35.890Z,95527.00
2023-05-10T11:32:34.870Z,95527.00
2023-05-10T11:33:35.863Z,95527.00
2023-05-10T11:34:34.999Z,95527.00
2023-05-10T11:35:34.853Z,95527.00
2023-05-10T11:36:35.830Z,95527.00
2023-05-10T11:37:35.835Z,95529.00
2023-05-10T11:38:35.822Z,95527.00
2023-05-10T11:39:36.257Z,95527.00
2023-05-10T11:40:35.840Z,95527.00
2023-05-10T11:41:34.809Z,95527.00
2023-05-10T11:42:34.813Z,95531.00
2023-05-10T11:43:34.819Z,95533.00
2023-05-10T11:44:35.815Z,95531.00
2023-05-10T11:45:34.829Z,95531.00
2023-05-10T11:46:35.859Z,95531.00
2023-05-10T11:47:34.789Z,95531.00
2023-05-10T11:48:34.759Z,95531.00
2023-05-10T11:49:35.790Z,95529.00
2023-05-10T11:50:35.773Z,95535.00
2023-05-10T11:51:35.777Z,95533.00
2023-05-10T11:52:35.724Z,95535.00
2023-05-10T11:53:35.728Z,95536.00
2023-05-10T11:54:34.758Z,95535.00
2023-05-10T11:55:34.780Z,95535.00
2023-05-10T11:56:35.771Z,95535.00
2023-05-10T11:57:35.829Z,95540.00
2023-05-10T11:58:35.819Z,95540.00
2023-05-10T11:59:35.870Z,95536.00
2023-05-10T12:00:35.913Z,95538.00
2023-05-10T12:01:35.938Z,95536.00
2023-05-10T12:02:36.029Z,95536.00
2023-05-10T12:03:35.266Z,95535.00
2023-05-10T12:04:36.059Z,95533.00
2023-05-10T12:05:35.044Z,95535.00
2023-05-10T12:06:35.082Z,95535.00
2023-05-10T12:07:36.112Z,95536.00
2023-05-10T12:08:36.122Z,95538.00
2023-05-10T12:09:43.714Z,95538.00
2023-05-10T12:10:36.153Z,95542.00
2023-05-10T12:11:35.128Z,95542.00
2023-05-10T12:12:36.114Z,95542.00
2023-05-10T12:13:35.128Z,95544.00
2023-05-10T12:14:35.116Z,95542.00
2023-05-10T12:15:35.110Z,95544.00
2023-05-10T12:16:35.132Z,95546.00
2023-05-10T12:17:36.135Z,95546.00
2023-05-10T12:18:36.116Z,95546.00
2023-05-10T12:19:36.093Z,95546.00
2023-05-10T12:20:36.038Z,95544.00
2023-05-10T12:21:35.081Z,95542.00
2023-05-10T12:22:35.036Z,95542.00
2023-05-10T12:23:36.030Z,95538.00
2023-05-10T12:24:35.056Z,95542.00
2023-05-10T12:25:35.037Z,95542.00
2023-05-10T12:26:36.049Z,95542.00
2023-05-10T12:27:35.035Z,95544.00
2023-05-10T12:28:35.992Z,95546.00
2023-05-10T12:29:35.022Z,95540.00
2023-05-10T12:30:36.002Z,95544.00
2023-05-10T12:31:36.022Z,95544.00
2023-05-10T12:32:34.985Z,95546.00
2023-05-10T12:33:35.008Z,95544.00
2023-05-10T12:34:35.963Z,95546.00
2023-05-10T12:35:34.958Z,95548.00
2023-05-10T12:36:35.979Z,95546.00
2023-05-10T12:37:35.924Z,95552.00
2023-05-10T12:38:35.914Z,95548.00
2023-05-10T12:39:35.923Z,95552.00
2023-05-10T12:40:35.992Z,95552.00
2023-05-10T12:41:34.903Z,95552.00
2023-05-10T12:42:35.881Z,95552.00
2023-05-10T12:43:34.921Z,95554.00
2023-05-10T12:44:35.867Z,95556.00
2023-05-10T12:45:35.924Z,95558.00
2023-05-10T12:46:35.945Z,95556.00
2023-05-10T12:47:34.948Z,95558.00
2023-05-10T12:48:35.010Z,95562.00
2023-05-10T12:49:35.987Z,95556.00
2023-05-10T12:50:35.987Z,95562.00
2023-05-10T12:51:35.056Z,95562.00
2023-05-10T12:52:36.117Z,95560.00
2023-05-10T12:53:36.038Z,95562.00
2023-05-10T12:54:36.109Z,95562.00
2023-05-10T12:55:35.138Z,95566.00
2023-05-10T12:56:36.165Z,95566.00
2023-05-10T12:57:36.154Z,95566.00
2023-05-10T12:58:36.262Z,95564.00
2023-05-10T12:59:37.373Z,95562.00
2023-05-10T13:00:36.176Z,95562.00
2023-05-10T13:01:36.263Z,95564.00
2023-05-10T13:02:35.169Z,95564.00
2023-05-10T13:03:35.169Z,95562.00
2023-05-10T13:04:36.201Z,95558.00
2023-05-10T13:05:35.161Z,95560.00
2023-05-10T13:06:36.100Z,95560.00
2023-05-10T13:07:36.164Z,95558.00
2023-05-10T13:08:35.116Z,95562.00
2023-05-10T13:09:36.166Z,95562.00
2023-05-10T13:10:36.131Z,95560.00
2023-05-10T13:11:36.129Z,95560.00
2023-05-10T13:12:36.078Z,95560.00
2023-05-10T13:13:35.063Z,95558.00
2023-05-10T13:14:35.056Z,95556.00
2023-05-10T13:15:36.054Z,95558.00
2023-05-10T13:16:36.085Z,95556.00
2023-05-10T13:17:36.090Z,95552.00
2023-05-10T13:18:36.043Z,95556.00
2023-05-10T13:19:35.014Z,95554.00
2023-05-10T13:20:35.007Z,95554.00
2023-05-10T13:21:35.000Z,95558.00
2023-05-10T13:22:40.222Z,95558.00
2023-05-10T13:23:36.221Z,95554.00
2023-05-10T13:24:36.240Z,95552.00
2023-05-10T13:25:36.277Z,95558.00
2023-05-10T13:26:35.301Z,95556.00
2023-05-10T13:27:35.337Z,95560.00
2023-05-10T13:28:36.396Z,95556.00
2023-05-10T13:29:36.366Z,95556.00
2023-05-10T13:30:35.375Z,95556.00
2023-05-10T13:31:36.429Z,95554.00
2023-05-10T13:32:36.457Z,95556.00
2023-05-10T13:33:36.506Z,95556.00
2023-05-10T13:34:35.504Z,95554.00
2023-05-10T13:35:35.488Z,95558.00
2023-05-10T13:36:36.521Z,95556.00
2023-05-10T13:37:36.539Z,95552.00
2023-05-10T13:38:36.546Z,95552.00
2023-05-10T13:39:36.595Z,95550.00
2023-05-10T13:40:36.559Z,95550.00
2023-05-10T13:41:36.551Z,95554.00
2023-05-10T13:42:36.577Z,95554.00
2023-05-10T13:43:35.577Z,95552.00
2023-05-10T13:44:36.630Z,95554.00
2023-05-10T13:45:35.632Z,95550.00
2023-05-10T13:46:35.685Z,95554.00
2023-05-10T13:47:36.647Z,95552.00
2023-05-10T13:48:38.153Z,95550.00
2023-05-10T13:49:35.617Z,95554.00
2023-05-10T13:50:36.632Z,95552.00
2023-05-10T13:51:36.698Z,95552.00
2023-05-10T13:52:35.607Z,95552.00
2023-05-10T13:53:36.605Z,95552.00
2023-05-10T13:54:35.603Z,95550.00
2023-05-10T13:55:35.596Z,95548.00
2023-05-10T13:56:36.580Z,95550.00
2023-05-10T13:57:36.560Z,95550.00
2023-05-10T13:58:36.570Z,95550.00
2023-05-10T13:59:36.571Z,95552.00
2023-05-10T14:00:35.557Z,95552.00
2023-05-10T14:01:35.598Z,95552.00
2023-05-10T14:02:35.600Z,95554.00
2023-05-10T14:03:35.593Z,95552.00
2023-05-10T14:04:35.534Z,95552.00
2023-05-10T14:05:35.521Z,95552.00
2023-05-10T14:06:35.506Z,95556.00
2023-05-10T14:07:35.501Z,95552.00
2023-05-10T14:08:36.490Z,95554.00
2023-05-10T14:09:35.479Z,95554.00
2023-05-10T14:10:36.467Z,95550.00
2023-05-10T14:11:35.476Z,95550.00
2023-05-10T14:12:36.471Z,95548.00
2023-05-10T14:13:36.467Z,95548.00
2023-05-10T14:14:36.459Z,95548.00
2023-05-10T14:15:35.435Z,95550.00
2023-05-10T14:16:35.526Z,95548.00
2023-05-10T14:17:35.616Z,95550.00
2023-05-10T14:18:36.647Z,95550.00
2023-05-10T14:19:36.678Z,95548.00
2023-05-10T14:20:36.726Z,95550.00
2023-05-10T14:21:35.756Z,95546.00
2023-05-10T14:22:36.815Z,95546.00
2023-05-10T14:23:36.836Z,95544.00
2023-05-10T14:24:35.902Z,95548.00
2023-05-10T14:25:35.950Z,95548.00
2023-05-10T14:26:36.975Z,95544.00
2023-05-10T14:27:36.086Z,95548.00
2023-05-10T14:28:36.128Z,95544.00
2023-05-10T14:29:36.117Z,95546.00
2023-05-10T14:30:36.192Z,95542.00
2023-05-10T14:31:36.309Z,95542.00
2023-05-10T14:32:36.353Z,95542.00
2023-05-10T14:33:36.322Z,95540.00
2023-05-10T14:34:36.392Z,95542.00
2023-05-10T14:35:37.445Z,95540.00
2023-05-10T14:36:37.501Z,95542.00
2023-05-10T14:37:37.557Z,95542.00
2023-05-10T14:38:36.579Z,95542.00
2023-05-10T14:39:36.647Z,95544.00
2023-05-10T14:40:36.709Z,95542.00
2023-05-10T14:41:36.780Z,95540.00
2023-05-10T14:42:37.778Z,95542.00
2023-05-10T14:43:36.823Z,95544.00
2023-05-10T14:44:37.816Z,95542.00
2023-05-10T14:45:37.984Z,95544.00
2023-05-10T14:46:36.985Z,95544.00
2023-05-10T14:47:37.995Z,95542.00
2023-05-10T14:48:37.031Z,95542.00
2023-05-10T14:49:37.109Z,95542.00
2023-05-10T14:50:38.149Z,95544.00
2023-05-10T14:51:37.180Z,95542.00
2023-05-10T14:52:38.234Z,95542.00
2023-05-10T14:53:37.261Z,95540.00
2023-05-10T14:54:38.319Z,95540.00
2023-05-10T14:55:38.396Z,95544.00
2023-05-10T14:56:37.428Z,95542.00
2023-05-10T14:57:37.461Z,95542.00
2023-05-10T14:58:38.457Z,95546.00
2023-05-10T14:59:38.498Z,95546.00
2023-05-10T15:00:37.520Z,95546.00
2023-05-10T15:01:37.579Z,95548.00
2023-05-10T15:02:38.613Z,95548.00
2023-05-10T15:03:37.781Z,95548.00
2023-05-10T15:04:38.686Z,95550.00
2023-05-10T15:05:37.719Z,95552.00
2023-05-10T15:06:37.748Z,95550.00
2023-05-10T15:07:37.783Z,95552.00
2023-05-10T15:08:38.825Z,95552.00
2023-05-10T15:09:38.860Z,95552.00
2023-05-10T15:10:38.929Z,95556.00
2023-05-10T15:11:38.965Z,95552.00
2023-05-10T15:12:39.029Z,95558.00
2023-05-10T15:13:39.056Z,95562.00
2023-05-10T15:14:39.048Z,95560.00
2023-05-10T15:15:39.179Z,95562.00
2023-05-10T15:16:39.205Z,95564.00
2023-05-10T15:17:39.130Z,95562.00
2023-05-10T15:18:38.143Z,95568.00
2023-05-10T15:19:38.162Z,95564.00
2023-05-10T15:20:39.195Z,95564.00
2023-05-10T15:21:38.178Z,95564.00
2023-05-10T15:22:39.208Z,95566.00
2023-05-10T15:23:38.190Z,95568.00
2023-05-10T15:24:39.212Z,95564.00
2023-05-10T15:25:38.270Z,95568.00
2023-05-10T15:26:38.321Z,95568.00
2023-05-10T15:27:38.387Z,95568.00
2023-05-10T15:28:39.366Z,95566.00
2023-05-10T15:29:39.362Z,95564.00
2023-05-10T16:41:15.674Z,95607.00
